Knifley, Kentucky
Current Conditions -  °F | °C
As of 7:04 AM on Thursday 30 Oct 2014 (Local Time) from KEKQ Reporting Station
Haze Haze  
Wind Chill: 34°   Ceiling: Unl
Heat Index: 34°   Visibility: 2mi
Dew Point: 34°   Wind: 0mph
Humidity: 100%   Direction: NA
Pressure: 30.17"   Gusts: NA
Location:  37.24°N, 85.19°W
Report Text: KEKQ 301204Z AUTO 00000KT 2SM BR CLR 01/01 A3017 RMK AO2
Loading
Personal Weather Stations






























Interactive Weather Map
Tropical Storm Tracking
New forecast layout! Learn more

10-Day Weather Forecast

Advertisements
Track Severe Weather on mobile